sensor_id;sensor_type;location;lat;lon;timestamp;pressure;altitude;pressure_sealevel;temperature;humidity
54978;BME280;40873;47.522;19.106;2023-02-10T00:01:15;102537.91;;;-4.19;100.00
54978;BME280;40873;47.522;19.106;2023-02-10T00:03:43;102538.97;;;-4.14;100.00
54978;BME280;40873;47.522;19.106;2023-02-10T00:06:11;102545.28;;;-4.30;100.00
54978;BME280;40873;47.522;19.106;2023-02-10T00:08:39;102548.63;;;-4.32;100.00
54978;BME280;40873;47.522;19.106;2023-02-10T00:11:11;102542.09;;;-4.47;100.00
54978;BME280;40873;47.522;19.106;2023-02-10T00:13:39;102535.84;;;-4.53;100.00
54978;BME280;40873;47.522;19.106;2023-02-10T00:16:07;102537.81;;;-4.46;100.00
54978;BME280;40873;47.522;19.106;2023-02-10T00:18:36;102548.94;;;-4.47;100.00
54978;BME280;40873;47.522;19.106;2023-02-10T00:21:15;102538.31;;;-4.56;100.00
54978;BME280;40873;47.522;19.106;2023-02-10T00:23:43;102544.00;;;-4.65;100.00
54978;BME280;40873;47.522;19.106;2023-02-10T00:26:12;102541.34;;;-4.66;100.00
54978;BME280;40873;47.522;19.106;2023-02-10T00:28:39;102540.28;;;-4.49;100.00
54978;BME280;40873;47.522;19.106;2023-02-10T00:31:10;102545.75;;;-4.40;100.00
54978;BME280;40873;47.522;19.106;2023-02-10T00:33:37;102550.16;;;-4.37;100.00
54978;BME280;40873;47.522;19.106;2023-02-10T00:36:09;102545.22;;;-4.31;100.00
54978;BME280;40873;47.522;19.106;2023-02-10T00:38:37;102542.34;;;-4.39;100.00
54978;BME280;40873;47.522;19.106;2023-02-10T00:41:06;102542.31;;;-4.41;100.00
54978;BME280;40873;47.522;19.106;2023-02-10T00:43:33;102542.22;;;-4.44;100.00
54978;BME280;40873;47.522;19.106;2023-02-10T00:46:01;102548.75;;;-4.29;100.00
54978;BME280;40873;47.522;19.106;2023-02-10T00:48:34;102537.59;;;-4.28;100.00
54978;BME280;40873;47.522;19.106;2023-02-10T00:51:01;102545.44;;;-4.49;100.00
54978;BME280;40873;47.522;19.106;2023-02-10T00:53:29;102543.66;;;-4.52;100.00
54978;BME280;40873;47.522;19.106;2023-02-10T00:55:56;102537.22;;;-4.63;100.00
54978;BME280;40873;47.522;19.106;2023-02-10T00:58:23;102544.63;;;-4.48;100.00
54978;BME280;40873;47.522;19.106;2023-02-10T01:00:52;102543.06;;;-4.67;100.00
54978;BME280;40873;47.522;19.106;2023-02-10T01:03:20;102533.59;;;-4.68;100.00
54978;BME280;40873;47.522;19.106;2023-02-10T01:05:47;102538.38;;;-4.55;100.00
54978;BME280;40873;47.522;19.106;2023-02-10T01:08:14;102533.34;;;-4.74;100.00
54978;BME280;40873;47.522;19.106;2023-02-10T01:10:42;102530.72;;;-4.76;100.00
54978;BME280;40873;47.522;19.106;2023-02-10T01:13:11;102533.47;;;-4.71;100.00
54978;BME280;40873;47.522;19.106;2023-02-10T01:15:45;102526.81;;;-4.88;100.00
54978;BME280;40873;47.522;19.106;2023-02-10T01:18:13;102529.25;;;-4.93;100.00
54978;BME280;40873;47.522;19.106;2023-02-10T01:20:42;102527.88;;;-4.83;100.00
54978;BME280;40873;47.522;19.106;2023-02-10T01:23:10;102527.25;;;-5.00;100.00
54978;BME280;40873;47.522;19.106;2023-02-10T01:25:37;102525.66;;;-4.97;100.00
54978;BME280;40873;47.522;19.106;2023-02-10T01:28:06;102518.56;;;-5.02;100.00
54978;BME280;40873;47.522;19.106;2023-02-10T01:30:34;102514.81;;;-4.88;100.00
54978;BME280;40873;47.522;19.106;2023-02-10T01:33:01;102518.13;;;-4.68;100.00
54978;BME280;40873;47.522;19.106;2023-02-10T01:35:28;102524.09;;;-4.93;100.00
54978;BME280;40873;47.522;19.106;2023-02-10T01:37:55;102519.91;;;-4.89;100.00
54978;BME280;40873;47.522;19.106;2023-02-10T01:40:24;102519.34;;;-5.05;100.00
54978;BME280;40873;47.522;19.106;2023-02-10T01:42:51;102519.28;;;-4.84;100.00
54978;BME280;40873;47.522;19.106;2023-02-10T01:45:24;102514.44;;;-4.99;100.00
54978;BME280;40873;47.522;19.106;2023-02-10T01:47:54;102521.31;;;-4.98;100.00
54978;BME280;40873;47.522;19.106;2023-02-10T01:50:26;102522.44;;;-5.13;100.00
54978;BME280;40873;47.522;19.106;2023-02-10T01:52:55;102515.53;;;-4.92;100.00
54978;BME280;40873;47.522;19.106;2023-02-10T01:55:25;102517.66;;;-5.04;100.00
54978;BME280;40873;47.522;19.106;2023-02-10T01:57:55;102518.47;;;-5.05;100.00
54978;BME280;40873;47.522;19.106;2023-02-10T02:00:24;102520.31;;;-5.24;100.00
54978;BME280;40873;47.522;19.106;2023-02-10T02:02:52;102517.50;;;-5.30;100.00
54978;BME280;40873;47.522;19.106;2023-02-10T02:05:35;102519.34;;;-5.27;100.00
54978;BME280;40873;47.522;19.106;2023-02-10T02:08:19;102524.94;;;-5.15;100.00
54978;BME280;40873;47.522;19.106;2023-02-10T02:13:46;102518.22;;;-5.11;100.00
54978;BME280;40873;47.522;19.106;2023-02-10T02:30:41;102506.19;;;-5.35;100.00
54978;BME280;40873;47.522;19.106;2023-02-10T02:33:14;102512.31;;;-5.31;100.00
54978;BME280;40873;47.522;19.106;2023-02-10T02:35:48;102509.78;;;-5.30;100.00
54978;BME280;40873;47.522;19.106;2023-02-10T02:38:18;102509.34;;;-5.19;100.00
54978;BME280;40873;47.522;19.106;2023-02-10T02:40:45;102509.63;;;-5.34;100.00
54978;BME280;40873;47.522;19.106;2023-02-10T02:43:12;102505.84;;;-5.42;100.00
54978;BME280;40873;47.522;19.106;2023-02-10T02:54:24;102510.09;;;-5.22;100.00
54978;BME280;40873;47.522;19.106;2023-02-10T02:57:09;102506.47;;;-5.27;100.00
54978;BME280;40873;47.522;19.106;2023-02-10T02:59:47;102504.59;;;-5.31;100.00
54978;BME280;40873;47.522;19.106;2023-02-10T03:02:17;102513.13;;;-5.32;100.00
54978;BME280;40873;47.522;19.106;2023-02-10T03:04:46;102519.94;;;-5.34;100.00
54978;BME280;40873;47.522;19.106;2023-02-10T03:07:14;102516.63;;;-5.30;100.00
54978;BME280;40873;47.522;19.106;2023-02-10T03:09:42;102505.22;;;-5.37;100.00
54978;BME280;40873;47.522;19.106;2023-02-10T03:12:09;102511.97;;;-5.40;100.00
54978;BME280;40873;47.522;19.106;2023-02-10T03:14:39;102507.66;;;-5.62;100.00
54978;BME280;40873;47.522;19.106;2023-02-10T03:17:06;102504.91;;;-5.67;100.00
54978;BME280;40873;47.522;19.106;2023-02-10T03:19:33;102506.06;;;-5.59;100.00
54978;BME280;40873;47.522;19.106;2023-02-10T03:22:00;102497.81;;;-5.72;100.00
54978;BME280;40873;47.522;19.106;2023-02-10T03:24:27;102501.97;;;-5.76;100.00
54978;BME280;40873;47.522;19.106;2023-02-10T03:26:54;102499.56;;;-5.71;100.00
54978;BME280;40873;47.522;19.106;2023-02-10T03:29:21;102502.31;;;-5.67;100.00
54978;BME280;40873;47.522;19.106;2023-02-10T03:31:49;102494.25;;;-5.76;100.00
54978;BME280;40873;47.522;19.106;2023-02-10T03:34:17;102506.34;;;-5.73;100.00
54978;BME280;40873;47.522;19.106;2023-02-10T03:36:44;102501.66;;;-5.63;100.00
54978;BME280;40873;47.522;19.106;2023-02-10T03:39:11;102502.38;;;-5.65;100.00
54978;BME280;40873;47.522;19.106;2023-02-10T03:41:38;102499.94;;;-5.62;100.00
54978;BME280;40873;47.522;19.106;2023-02-10T03:44:05;102496.22;;;-5.48;100.00
54978;BME280;40873;47.522;19.106;2023-02-10T03:46:32;102493.75;;;-5.67;100.00
54978;BME280;40873;47.522;19.106;2023-02-10T03:48:59;102494.63;;;-5.67;100.00
54978;BME280;40873;47.522;19.106;2023-02-10T03:51:26;102496.03;;;-5.53;100.00
54978;BME280;40873;47.522;19.106;2023-02-10T03:53:53;102487.78;;;-5.66;100.00
54978;BME280;40873;47.522;19.106;2023-02-10T03:56:20;102486.59;;;-5.74;100.00
54978;BME280;40873;47.522;19.106;2023-02-10T03:58:47;102481.56;;;-5.94;100.00
54978;BME280;40873;47.522;19.106;2023-02-10T04:01:16;102474.19;;;-6.05;100.00
54978;BME280;40873;47.522;19.106;2023-02-10T04:03:44;102475.75;;;-5.88;100.00
54978;BME280;40873;47.522;19.106;2023-02-10T04:06:12;102474.59;;;-5.96;100.00
54978;BME280;40873;47.522;19.106;2023-02-10T04:08:39;102480.53;;;-5.76;100.00
54978;BME280;40873;47.522;19.106;2023-02-10T04:11:06;102471.31;;;-5.92;100.00
54978;BME280;40873;47.522;19.106;2023-02-10T04:13:35;102461.03;;;-5.92;100.00
54978;BME280;40873;47.522;19.106;2023-02-10T04:16:08;102475.19;;;-5.81;100.00
54978;BME280;40873;47.522;19.106;2023-02-10T04:18:36;102468.16;;;-5.85;100.00
54978;BME280;40873;47.522;19.106;2023-02-10T04:21:07;102471.50;;;-5.88;100.00
54978;BME280;40873;47.522;19.106;2023-02-10T04:23:35;102473.50;;;-5.81;100.00
54978;BME280;40873;47.522;19.106;2023-02-10T04:26:03;102473.28;;;-5.85;100.00
54978;BME280;40873;47.522;19.106;2023-02-10T04:28:30;102467.00;;;-5.93;100.00
54978;BME280;40873;47.522;19.106;2023-02-10T04:30:58;102479.50;;;-6.02;100.00
54978;BME280;40873;47.522;19.106;2023-02-10T04:33:27;102479.03;;;-5.92;100.00
54978;BME280;40873;47.522;19.106;2023-02-10T04:35:55;102489.75;;;-6.02;100.00
54978;BME280;40873;47.522;19.106;2023-02-10T04:38:23;102494.03;;;-6.03;100.00
54978;BME280;40873;47.522;19.106;2023-02-10T04:40:50;102502.63;;;-6.02;100.00
54978;BME280;40873;47.522;19.106;2023-02-10T04:43:17;102496.63;;;-5.81;100.00
54978;BME280;40873;47.522;19.106;2023-02-10T04:45:44;102499.53;;;-5.94;100.00
54978;BME280;40873;47.522;19.106;2023-02-10T04:48:13;102503.44;;;-6.03;100.00
54978;BME280;40873;47.522;19.106;2023-02-10T04:50:40;102505.13;;;-6.04;100.00
54978;BME280;40873;47.522;19.106;2023-02-10T04:53:08;102516.53;;;-5.97;100.00
54978;BME280;40873;47.522;19.106;2023-02-10T04:55:35;102519.72;;;-6.03;100.00
54978;BME280;40873;47.522;19.106;2023-02-10T04:58:02;102516.13;;;-5.86;100.00
54978;BME280;40873;47.522;19.106;2023-02-10T05:00:29;102524.25;;;-5.97;100.00
54978;BME280;40873;47.522;19.106;2023-02-10T05:02:56;102520.03;;;-5.95;100.00
54978;BME280;40873;47.522;19.106;2023-02-10T05:05:23;102523.50;;;-5.95;100.00
54978;BME280;40873;47.522;19.106;2023-02-10T05:07:52;102518.03;;;-6.02;100.00
54978;BME280;40873;47.522;19.106;2023-02-10T05:10:19;102522.09;;;-6.08;100.00
54978;BME280;40873;47.522;19.106;2023-02-10T05:12:47;102523.97;;;-5.83;100.00
54978;BME280;40873;47.522;19.106;2023-02-10T05:15:15;102529.94;;;-5.84;100.00
54978;BME280;40873;47.522;19.106;2023-02-10T05:17:43;102522.34;;;-6.01;100.00
54978;BME280;40873;47.522;19.106;2023-02-10T05:20:10;102514.19;;;-6.12;100.00
54978;BME280;40873;47.522;19.106;2023-02-10T05:22:38;102519.16;;;-5.96;100.00
54978;BME280;40873;47.522;19.106;2023-02-10T05:25:06;102530.69;;;-6.07;100.00
54978;BME280;40873;47.522;19.106;2023-02-10T05:27:34;102528.94;;;-6.08;100.00
54978;BME280;40873;47.522;19.106;2023-02-10T05:30:04;102528.50;;;-6.19;100.00
54978;BME280;40873;47.522;19.106;2023-02-10T05:32:32;102527.94;;;-6.12;100.00
54978;BME280;40873;47.522;19.106;2023-02-10T05:34:59;102530.03;;;-6.22;100.00
54978;BME280;40873;47.522;19.106;2023-02-10T05:37:26;102533.88;;;-6.13;100.00
54978;BME280;40873;47.522;19.106;2023-02-10T05:39:53;102543.69;;;-6.23;100.00
54978;BME280;40873;47.522;19.106;2023-02-10T05:42:20;102543.69;;;-6.23;100.00
54978;BME280;40873;47.522;19.106;2023-02-10T05:44:47;102547.00;;;-6.26;100.00
54978;BME280;40873;47.522;19.106;2023-02-10T05:47:14;102539.69;;;-6.17;100.00
54978;BME280;40873;47.522;19.106;2023-02-10T05:49:41;102542.81;;;-6.24;100.00
54978;BME280;40873;47.522;19.106;2023-02-10T05:52:08;102541.84;;;-6.26;100.00
54978;BME280;40873;47.522;19.106;2023-02-10T05:54:35;102530.50;;;-6.12;100.00
54978;BME280;40873;47.522;19.106;2023-02-10T05:57:02;102532.94;;;-6.15;100.00
54978;BME280;40873;47.522;19.106;2023-02-10T05:59:29;102534.75;;;-6.12;100.00
54978;BME280;40873;47.522;19.106;2023-02-10T06:01:57;102532.03;;;-5.96;100.00
54978;BME280;40873;47.522;19.106;2023-02-10T06:04:24;102534.38;;;-6.00;100.00
54978;BME280;40873;47.522;19.106;2023-02-10T06:06:54;102533.50;;;-6.01;100.00
54978;BME280;40873;47.522;19.106;2023-02-10T06:09:20;102534.13;;;-6.07;100.00
54978;BME280;40873;47.522;19.106;2023-02-10T06:11:52;102532.63;;;-5.81;100.00
54978;BME280;40873;47.522;19.106;2023-02-10T06:14:20;102519.66;;;-5.63;100.00
54978;BME280;40873;47.522;19.106;2023-02-10T06:16:47;102523.56;;;-5.71;100.00
54978;BME280;40873;47.522;19.106;2023-02-10T06:19:14;102530.31;;;-5.74;100.00
54978;BME280;40873;47.522;19.106;2023-02-10T06:21:42;102539.81;;;-5.72;100.00
54978;BME280;40873;47.522;19.106;2023-02-10T06:24:09;102546.72;;;-5.71;100.00
54978;BME280;40873;47.522;19.106;2023-02-10T06:26:36;102551.69;;;-5.75;100.00
54978;BME280;40873;47.522;19.106;2023-02-10T06:29:03;102550.56;;;-5.61;100.00
54978;BME280;40873;47.522;19.106;2023-02-10T06:31:30;102540.44;;;-5.57;100.00
54978;BME280;40873;47.522;19.106;2023-02-10T06:33:57;102552.72;;;-5.70;100.00
54978;BME280;40873;47.522;19.106;2023-02-10T06:36:25;102567.44;;;-5.68;100.00
54978;BME280;40873;47.522;19.106;2023-02-10T06:38:51;102572.75;;;-5.63;100.00
54978;BME280;40873;47.522;19.106;2023-02-10T06:41:18;102575.31;;;-5.63;100.00
54978;BME280;40873;47.522;19.106;2023-02-10T06:43:45;102583.47;;;-5.53;100.00
54978;BME280;40873;47.522;19.106;2023-02-10T06:46:12;102593.72;;;-5.54;100.00
54978;BME280;40873;47.522;19.106;2023-02-10T06:48:42;102598.28;;;-5.47;100.00
54978;BME280;40873;47.522;19.106;2023-02-10T06:51:09;102586.88;;;-5.54;100.00
54978;BME280;40873;47.522;19.106;2023-02-10T06:53:36;102592.06;;;-5.31;100.00
54978;BME280;40873;47.522;19.106;2023-02-10T06:56:05;102588.09;;;-5.23;100.00
54978;BME280;40873;47.522;19.106;2023-02-10T06:58:32;102585.09;;;-5.13;100.00
54978;BME280;40873;47.522;19.106;2023-02-10T07:00:59;102575.84;;;-5.08;100.00
54978;BME280;40873;47.522;19.106;2023-02-10T07:03:27;102579.91;;;-5.14;100.00
54978;BME280;40873;47.522;19.106;2023-02-10T07:05:54;102579.91;;;-5.14;100.00
54978;BME280;40873;47.522;19.106;2023-02-10T07:08:21;102583.00;;;-5.01;100.00
54978;BME280;40873;47.522;19.106;2023-02-10T07:10:48;102581.34;;;-4.99;100.00
54978;BME280;40873;47.522;19.106;2023-02-10T07:13:15;102594.28;;;-4.97;100.00
54978;BME280;40873;47.522;19.106;2023-02-10T07:15:43;102586.81;;;-4.91;100.00
54978;BME280;40873;47.522;19.106;2023-02-10T07:18:09;102593.31;;;-4.78;100.00
54978;BME280;40873;47.522;19.106;2023-02-10T07:20:37;102594.47;;;-4.70;100.00
54978;BME280;40873;47.522;19.106;2023-02-10T07:23:03;102596.31;;;-4.66;100.00
54978;BME280;40873;47.522;19.106;2023-02-10T07:25:30;102581.97;;;-4.59;100.00
54978;BME280;40873;47.522;19.106;2023-02-10T07:27:57;102578.97;;;-4.48;100.00
54978;BME280;40873;47.522;19.106;2023-02-10T07:30:25;102584.78;;;-4.31;100.00
54978;BME280;40873;47.522;19.106;2023-02-10T07:32:52;102590.06;;;-4.26;100.00
54978;BME280;40873;47.522;19.106;2023-02-10T07:35:19;102588.41;;;-4.24;100.00
54978;BME280;40873;47.522;19.106;2023-02-10T07:37:49;102585.44;;;-4.11;100.00
54978;BME280;40873;47.522;19.106;2023-02-10T07:40:16;102581.41;;;-4.04;100.00
54978;BME280;40873;47.522;19.106;2023-02-10T07:42:42;102565.38;;;-3.70;100.00
54978;BME280;40873;47.522;19.106;2023-02-10T07:45:10;102565.84;;;-3.56;99.77
54978;BME280;40873;47.522;19.106;2023-02-10T07:47:37;102562.75;;;-3.46;98.38
54978;BME280;40873;47.522;19.106;2023-02-10T07:50:07;102576.56;;;-3.44;97.96
54978;BME280;40873;47.522;19.106;2023-02-10T07:52:34;102581.75;;;-3.43;97.75
54978;BME280;40873;47.522;19.106;2023-02-10T07:55:01;102577.19;;;-3.24;96.95
54978;BME280;40873;47.522;19.106;2023-02-10T07:57:29;102575.53;;;-3.22;97.99
54978;BME280;40873;47.522;19.106;2023-02-10T07:59:56;102581.16;;;-2.80;95.00
54978;BME280;40873;47.522;19.106;2023-02-10T08:02:23;102591.66;;;-2.74;94.99
54978;BME280;40873;47.522;19.106;2023-02-10T08:04:50;102596.38;;;-2.61;93.34
54978;BME280;40873;47.522;19.106;2023-02-10T08:07:20;102591.66;;;-2.15;90.69
54978;BME280;40873;47.522;19.106;2023-02-10T08:09:47;102591.75;;;-2.11;89.61
54978;BME280;40873;47.522;19.106;2023-02-10T08:12:14;102595.78;;;-1.89;87.52
54978;BME280;40873;47.522;19.106;2023-02-10T08:14:41;102594.06;;;-1.88;86.94
54978;BME280;40873;47.522;19.106;2023-02-10T08:17:09;102599.94;;;-1.96;87.35
54978;BME280;40873;47.522;19.106;2023-02-10T08:19:36;102600.81;;;-1.95;86.46
54978;BME280;40873;47.522;19.106;2023-02-10T08:22:06;102607.88;;;-1.88;86.55
54978;BME280;40873;47.522;19.106;2023-02-10T08:24:33;102600.97;;;-1.56;85.09
54978;BME280;40873;47.522;19.106;2023-02-10T08:27:00;102602.97;;;-1.11;81.92
54978;BME280;40873;47.522;19.106;2023-02-10T08:29:27;102599.34;;;-0.80;79.96
54978;BME280;40873;47.522;19.106;2023-02-10T08:31:54;102596.84;;;-1.13;80.49
54978;BME280;40873;47.522;19.106;2023-02-10T08:34:22;102586.13;;;-0.91;80.35
54978;BME280;40873;47.522;19.106;2023-02-10T08:36:49;102600.41;;;-0.70;78.83
54978;BME280;40873;47.522;19.106;2023-02-10T08:39:16;102599.84;;;-0.96;79.30
54978;BME280;40873;47.522;19.106;2023-02-10T08:41:43;102607.13;;;-0.80;79.77
54978;BME280;40873;47.522;19.106;2023-02-10T08:44:14;102597.53;;;-0.43;77.78
54978;BME280;40873;47.522;19.106;2023-02-10T08:46:41;102591.84;;;-0.27;77.22
54978;BME280;40873;47.522;19.106;2023-02-10T08:49:09;102605.06;;;-0.13;76.75
54978;BME280;40873;47.522;19.106;2023-02-10T08:51:36;102603.81;;;0.13;75.44
54978;BME280;40873;47.522;19.106;2023-02-10T08:54:05;102593.91;;;0.38;75.83
54978;BME280;40873;47.522;19.106;2023-02-10T08:56:33;102590.91;;;0.66;73.43
54978;BME280;40873;47.522;19.106;2023-02-10T08:59:00;102589.44;;;0.31;73.91
54978;BME280;40873;47.522;19.106;2023-02-10T09:01:28;102594.91;;;0.47;73.88
54978;BME280;40873;47.522;19.106;2023-02-10T09:03:56;102586.94;;;0.90;72.02
54978;BME280;40873;47.522;19.106;2023-02-10T09:06:27;102582.78;;;0.99;70.54
54978;BME280;40873;47.522;19.106;2023-02-10T09:08:55;102582.63;;;0.37;72.79
54978;BME280;40873;47.522;19.106;2023-02-10T09:11:22;102594.63;;;0.29;73.07
54978;BME280;40873;47.522;19.106;2023-02-10T09:13:51;102587.34;;;0.61;73.21
54978;BME280;40873;47.522;19.106;2023-02-10T09:16:18;102590.81;;;0.60;72.66
54978;BME280;40873;47.522;19.106;2023-02-10T09:18:46;102574.75;;;0.33;74.01
54978;BME280;40873;47.522;19.106;2023-02-10T09:21:12;102586.50;;;0.62;73.29
54978;BME280;40873;47.522;19.106;2023-02-10T09:23:39;102583.03;;;0.62;72.88
54978;BME280;40873;47.522;19.106;2023-02-10T09:26:06;102592.78;;;0.75;72.18
54978;BME280;40873;47.522;19.106;2023-02-10T09:28:34;102588.91;;;1.04;71.63
54978;BME280;40873;47.522;19.106;2023-02-10T09:31:04;102580.41;;;1.18;70.52
54978;BME280;40873;47.522;19.106;2023-02-10T09:33:32;102574.16;;;1.69;69.40
54978;BME280;40873;47.522;19.106;2023-02-10T09:35:59;102576.41;;;1.41;69.89
54978;BME280;40873;47.522;19.106;2023-02-10T09:38:26;102588.03;;;1.69;68.02
54978;BME280;40873;47.522;19.106;2023-02-10T09:54:24;102579.47;;;2.66;63.10
54978;BME280;40873;47.522;19.106;2023-02-10T09:56:55;102577.22;;;3.21;61.49
54978;BME280;40873;47.522;19.106;2023-02-10T09:59:23;102576.44;;;3.34;60.21
54978;BME280;40873;47.522;19.106;2023-02-10T10:01:56;102573.97;;;3.75;59.29
54978;BME280;40873;47.522;19.106;2023-02-10T10:04:26;102565.28;;;3.78;57.42
54978;BME280;40873;47.522;19.106;2023-02-10T10:07:02;102560.66;;;3.17;59.29
54978;BME280;40873;47.522;19.106;2023-02-10T10:12:07;102564.47;;;3.97;56.63
54978;BME280;40873;47.522;19.106;2023-02-10T10:14:40;102566.16;;;3.89;56.11
54978;BME280;40873;47.522;19.106;2023-02-10T10:30:54;102566.78;;;3.24;55.90
54978;BME280;40873;47.522;19.106;2023-02-10T10:33:35;102556.28;;;3.12;56.71
54978;BME280;40873;47.522;19.106;2023-02-10T10:36:14;102547.84;;;3.75;54.34
54978;BME280;40873;47.522;19.106;2023-02-10T10:38:46;102551.28;;;3.56;54.29
54978;BME280;40873;47.522;19.106;2023-02-10T10:41:14;102550.53;;;4.01;53.60
54978;BME280;40873;47.522;19.106;2023-02-10T10:43:46;102541.00;;;4.45;50.30
54978;BME280;40873;47.522;19.106;2023-02-10T10:46:38;102535.78;;;4.40;50.50
54978;BME280;40873;47.522;19.106;2023-02-10T10:49:07;102542.69;;;4.99;49.00
54978;BME280;40873;47.522;19.106;2023-02-10T10:51:34;102531.25;;;5.28;48.19
54978;BME280;40873;47.522;19.106;2023-02-10T10:54:03;102534.84;;;4.91;47.68
54978;BME280;40873;47.522;19.106;2023-02-10T10:56:58;102512.66;;;5.92;46.83
54978;BME280;40873;47.522;19.106;2023-02-10T10:59:36;102512.66;;;5.86;45.20
54978;BME280;40873;47.522;19.106;2023-02-10T11:02:13;102507.03;;;4.54;47.87
54978;BME280;40873;47.522;19.106;2023-02-10T11:04:41;102501.75;;;4.75;48.29
54978;BME280;40873;47.522;19.106;2023-02-10T11:07:16;102497.06;;;5.66;47.46
54978;BME280;40873;47.522;19.106;2023-02-10T11:09:54;102484.88;;;5.59;47.31
54978;BME280;40873;47.522;19.106;2023-02-10T11:12:32;102492.41;;;6.12;46.44
54978;BME280;40873;47.522;19.106;2023-02-10T11:15:01;102492.00;;;5.32;47.59
54978;BME280;40873;47.522;19.106;2023-02-10T11:17:42;102490.34;;;5.04;48.26
54978;BME280;40873;47.522;19.106;2023-02-10T11:22:39;102493.75;;;5.26;47.87
54978;BME280;40873;47.522;19.106;2023-02-10T11:27:53;102499.06;;;5.00;48.68
54978;BME280;40873;47.522;19.106;2023-02-10T11:30:33;102501.69;;;5.06;47.33
54978;BME280;40873;47.522;19.106;2023-02-10T11:33:04;102498.13;;;5.25;47.65
54978;BME280;40873;47.522;19.106;2023-02-10T11:35:32;102493.03;;;4.82;48.67
54978;BME280;40873;47.522;19.106;2023-02-10T11:38:14;102490.25;;;5.36;47.89
54978;BME280;40873;47.522;19.106;2023-02-10T11:41:03;102487.69;;;5.13;47.81
54978;BME280;40873;47.522;19.106;2023-02-10T11:43:36;102481.44;;;5.50;47.09
54978;BME280;40873;47.522;19.106;2023-02-10T11:46:05;102490.47;;;4.47;47.94
54978;BME280;40873;47.522;19.106;2023-02-10T11:48:33;102469.56;;;4.49;48.60
54978;BME280;40873;47.522;19.106;2023-02-10T11:51:14;102467.81;;;4.55;48.75
54978;BME280;40873;47.522;19.106;2023-02-10T11:53:44;102463.41;;;4.71;48.54
54978;BME280;40873;47.522;19.106;2023-02-10T11:56:40;102460.00;;;4.11;50.92
54978;BME280;40873;47.522;19.106;2023-02-10T12:08:17;102436.41;;;3.41;52.25
54978;BME280;40873;47.522;19.106;2023-02-10T12:19:50;102422.53;;;3.60;52.96
54978;BME280;40873;47.522;19.106;2023-02-10T12:25:24;102420.75;;;3.35;52.08
54978;BME280;40873;47.522;19.106;2023-02-10T12:30:54;102408.56;;;3.38;53.65
54978;BME280;40873;47.522;19.106;2023-02-10T12:36:44;102409.44;;;3.37;53.04
54978;BME280;40873;47.522;19.106;2023-02-10T12:39:23;102404.22;;;3.31;52.21
54978;BME280;40873;47.522;19.106;2023-02-10T12:53:55;102394.63;;;3.22;52.54
54978;BME280;40873;47.522;19.106;2023-02-10T12:56:31;102396.41;;;3.39;52.27
54978;BME280;40873;47.522;19.106;2023-02-10T12:59:23;102401.66;;;3.60;52.16
54978;BME280;40873;47.522;19.106;2023-02-10T13:02:38;102407.75;;;3.62;52.04
54978;BME280;40873;47.522;19.106;2023-02-10T13:05:07;102408.59;;;3.44;52.71
54978;BME280;40873;47.522;19.106;2023-02-10T13:12:37;102418.19;;;3.71;51.81
54978;BME280;40873;47.522;19.106;2023-02-10T13:15:12;102411.22;;;3.60;52.07
54978;BME280;40873;47.522;19.106;2023-02-10T13:17:43;102398.19;;;3.56;51.96
54978;BME280;40873;47.522;19.106;2023-02-10T13:26:17;102406.00;;;3.66;51.97
54978;BME280;40873;47.522;19.106;2023-02-10T13:29:03;102395.56;;;3.60;52.38
54978;BME280;40873;47.522;19.106;2023-02-10T13:34:23;102399.91;;;3.67;52.92
54978;BME280;40873;47.522;19.106;2023-02-10T13:37:16;102409.50;;;3.77;52.21
54978;BME280;40873;47.522;19.106;2023-02-10T13:39:51;102394.69;;;3.73;52.33
54978;BME280;40873;47.522;19.106;2023-02-10T13:58:32;102394.69;;;4.16;51.62
54978;BME280;40873;47.522;19.106;2023-02-10T14:01:00;102388.59;;;3.95;52.48
54978;BME280;40873;47.522;19.106;2023-02-10T14:03:32;102389.41;;;4.43;51.62
54978;BME280;40873;47.522;19.106;2023-02-10T14:06:06;102385.06;;;4.42;51.04
54978;BME280;40873;47.522;19.106;2023-02-10T14:08:40;102390.34;;;4.25;51.59
54978;BME280;40873;47.522;19.106;2023-02-10T14:14:21;102392.94;;;3.96;51.98
54978;BME280;40873;47.522;19.106;2023-02-10T14:17:22;102384.25;;;4.20;51.94
54978;BME280;40873;47.522;19.106;2023-02-10T14:19:51;102383.38;;;4.01;52.40
54978;BME280;40873;47.522;19.106;2023-02-10T14:24:54;102390.34;;;4.15;52.36
54978;BME280;40873;47.522;19.106;2023-02-10T14:27:24;102398.19;;;3.79;52.75
54978;BME280;40873;47.522;19.106;2023-02-10T14:29:55;102403.41;;;3.73;53.33
54978;BME280;40873;47.522;19.106;2023-02-10T14:32:25;102401.66;;;3.66;53.47
54978;BME280;40873;47.522;19.106;2023-02-10T14:35:00;102396.44;;;3.89;55.23
54978;BME280;40873;47.522;19.106;2023-02-10T14:37:27;102392.06;;;4.17;60.10
54978;BME280;40873;47.522;19.106;2023-02-10T14:39:59;102390.34;;;3.81;53.83
54978;BME280;40873;47.522;19.106;2023-02-10T14:42:29;102384.25;;;3.65;54.43
54978;BME280;40873;47.522;19.106;2023-02-10T14:44:59;102384.25;;;3.59;54.74
54978;BME280;40873;47.522;19.106;2023-02-10T14:47:36;102386.84;;;3.59;54.99
54978;BME280;40873;47.522;19.106;2023-02-10T14:50:05;102390.34;;;3.70;55.27
54978;BME280;40873;47.522;19.106;2023-02-10T14:52:34;102393.81;;;3.75;55.09
54978;BME280;40873;47.522;19.106;2023-02-10T14:55:31;102394.72;;;3.87;54.67
54978;BME280;40873;47.522;19.106;2023-02-10T14:58:05;102399.06;;;3.80;54.96
54978;BME280;40873;47.522;19.106;2023-02-10T15:00:33;102388.59;;;3.57;55.61
54978;BME280;40873;47.522;19.106;2023-02-10T15:03:01;102385.97;;;3.54;55.44
54978;BME280;40873;47.522;19.106;2023-02-10T15:05:36;102388.59;;;3.54;55.74
54978;BME280;40873;47.522;19.106;2023-02-10T15:08:07;102391.16;;;3.40;56.17